Time;durP1;ratioP1;P1;durP2;ratioP2;P2;SDS_P1;SDS_P2;PMS_P1;PMS_P2;Temp;Humidity;BMP_temperature;BMP_pressure;BME280_temperature;BME280_humidity;BME280_pressure;Samples;Min_cycle;Max_cycle;Signal;HPM_P1;HPM_P2
2021/11/24 00:04:49;;;;;;;79.32;26.85;;;5.70;99.90;;;;;;12275031;28;20587;-39
2021/11/24 00:10:51;;;;;;;89.55;27.25;;;5.70;99.90;;;;;;12274495;28;20048;-38
2021/11/24 00:16:53;;;;;;;90.15;27.70;;;5.70;99.90;;;;;;12278452;28;20050;-38
2021/11/24 00:22:56;;;;;;;96.90;26.25;;;5.70;99.90;;;;;;12276564;28;20071;-38
2021/11/24 00:28:58;;;;;;;102.38;28.85;;;5.70;99.90;;;;;;12278178;28;20055;-39
2021/11/24 00:35:02;;;;;;;82.15;27.30;;;5.70;99.90;;;;;;12271646;28;20055;-39
2021/11/24 00:41:04;;;;;;;89.70;27.40;;;5.70;99.90;;;;;;12274659;28;20043;-38
2021/11/24 00:47:08;;;;;;;90.75;28.90;;;5.80;99.90;;;;;;12272214;28;20075;-39
2021/11/24 00:53:13;;;;;;;96.60;28.42;;;5.70;99.90;;;;;;12273091;28;20047;-38
2021/11/24 00:59:15;;;;;;;112.30;29.50;;;5.80;99.90;;;;;;12272597;28;20063;-39
2021/11/24 01:05:17;;;;;;;86.38;27.75;;;5.80;99.90;;;;;;12259346;28;20079;-39
2021/11/24 01:11:19;;;;;;;84.93;29.15;;;5.80;99.90;;;;;;12270118;28;20051;-38
2021/11/24 01:17:21;;;;;;;84.68;26.90;;;5.90;99.90;;;;;;12275423;28;20048;-39
2021/11/24 01:23:23;;;;;;;85.60;29.00;;;5.80;99.90;;;;;;12265725;28;20047;-38
2021/11/24 01:29:25;;;;;;;84.28;27.35;;;5.80;99.90;;;;;;12270699;28;20046;-39
2021/11/24 01:35:29;;;;;;;75.43;27.17;;;5.80;99.90;;;;;;12267544;28;20062;-39
2021/11/24 01:41:33;;;;;;;70.50;25.00;;;5.80;99.90;;;;;;12272886;28;20071;-38
2021/11/24 01:47:36;;;;;;;;;;;5.70;99.90;;;;;;12272346;28;20051;-38
2021/11/24 01:53:38;;;;;;;71.00;24.48;;;5.70;99.90;;;;;;12266695;28;19973;-40
2021/11/24 01:59:40;;;;;;;64.88;22.30;;;5.80;99.90;;;;;;12269986;28;20478;-38
2021/11/24 02:05:43;;;;;;;69.40;22.88;;;5.80;99.90;;;;;;12268781;28;20066;-38
2021/11/24 02:11:45;;;;;;;65.00;23.30;;;5.70;99.90;;;;;;12266881;28;20510;-38
2021/11/24 02:17:48;;;;;;;67.30;22.73;;;5.70;99.90;;;;;;12270831;28;20051;-39
2021/11/24 02:23:52;;;;;;;75.82;24.38;;;5.70;99.90;;;;;;12263720;28;20051;-39
2021/11/24 02:29:54;;;;;;;72.47;24.17;;;5.70;99.90;;;;;;12268223;28;20050;-39
2021/11/24 02:35:56;;;;;;;89.28;25.75;;;5.70;99.90;;;;;;12271801;28;20055;-39
2021/11/24 02:41:59;;;;;;;79.13;25.88;;;5.70;99.90;;;;;;12280544;28;20062;-39
2021/11/24 02:48:04;;;;;;;69.50;24.10;;;5.60;99.90;;;;;;12274741;28;20198;-38
2021/11/24 02:54:06;;;;;;;74.03;24.97;;;5.70;99.90;;;;;;12271704;28;20059;-38
2021/11/24 03:00:20;;;;;;;80.88;25.00;;;5.60;99.90;;;;;;12274367;28;20048;-39
2021/11/24 03:06:25;;;;;;;76.35;25.13;;;5.60;99.90;;;;;;12268659;28;20138;-39
2021/11/24 03:12:27;;;;;;;73.15;25.15;;;5.60;99.90;;;;;;12274113;28;20090;-39
2021/11/24 03:18:30;;;;;;;66.40;23.58;;;5.60;99.90;;;;;;12272464;28;20055;-38
2021/11/24 03:24:32;;;;;;;62.33;22.17;;;5.60;99.90;;;;;;12264044;28;20043;-39
2021/11/24 03:30:41;;;;;;;49.30;20.05;;;5.50;99.90;;;;;;12269089;28;20062;-38
2021/11/24 03:36:43;;;;;;;60.67;22.40;;;5.60;99.90;;;;;;12262135;28;20105;-38
2021/11/24 03:42:47;;;;;;;49.72;20.25;;;5.70;99.90;;;;;;12264162;28;20039;-38
2021/11/24 03:48:50;;;;;;;53.27;21.83;;;5.60;99.90;;;;;;12266361;28;20539;-38
2021/11/24 03:54:55;;;;;;;48.70;19.92;;;5.60;99.90;;;;;;12270153;28;20652;-39
2021/11/24 04:01:03;;;;;;;53.33;20.27;;;5.60;99.90;;;;;;12269387;28;20955;-38
2021/11/24 04:07:05;;;;;;;62.75;22.70;;;5.60;99.90;;;;;;12266574;28;20397;-40
2021/11/24 04:13:07;;;;;;;64.03;23.52;;;5.60;99.90;;;;;;12267343;28;20047;-39
2021/11/24 04:19:09;;;;;;;66.00;22.98;;;5.50;99.90;;;;;;12272949;28;20074;-38
2021/11/24 04:25:13;;;;;;;66.88;22.75;;;5.50;99.90;;;;;;12267997;28;20139;-39
2021/11/24 04:31:15;;;;;;;71.57;24.63;;;5.50;99.90;;;;;;12266927;28;20051;-39
2021/11/24 04:37:17;;;;;;;70.63;23.33;;;5.50;99.90;;;;;;12268699;28;20051;-38
2021/11/24 04:43:22;;;;;;;73.60;24.55;;;5.50;99.90;;;;;;12266277;28;20574;-39
2021/11/24 04:49:23;;;;;;;67.78;23.05;;;5.50;99.90;;;;;;12274077;28;20070;-38
2021/11/24 04:55:27;;;;;;;65.68;24.30;;;5.60;99.90;;;;;;12271877;28;20491;-38
2021/11/24 05:01:32;;;;;;;60.53;22.98;;;5.60;99.90;;;;;;12276202;28;20063;-38
2021/11/24 05:07:35;;;;;;;57.33;22.90;;;5.60;99.90;;;;;;12272247;28;20062;-39
2021/11/24 05:13:40;;;;;;;52.37;21.93;;;5.60;99.90;;;;;;12272812;28;20105;-39
2021/11/24 05:19:47;;;;;;;58.15;21.90;;;5.60;99.90;;;;;;12270423;28;20137;-39
2021/11/24 05:25:48;;;;;;;53.13;22.08;;;5.60;99.90;;;;;;12264546;28;20107;-38
2021/11/24 05:31:50;;;;;;;59.72;23.50;;;5.60;99.90;;;;;;12277489;28;20413;-38
2021/11/24 05:37:54;;;;;;;54.80;21.85;;;5.60;99.90;;;;;;12269914;28;20539;-40
2021/11/24 05:44:14;;;;;;;56.72;22.65;;;5.60;99.90;;;;;;12275796;28;20039;-39
2021/11/24 05:50:17;;;;;;;62.67;23.85;;;5.60;99.90;;;;;;12277779;28;20058;-38
2021/11/24 05:56:21;;;;;;;;;;;5.60;99.90;;;;;;12280412;28;20055;-39
2021/11/24 06:02:24;;;;;;;58.42;22.50;;;5.60;99.90;;;;;;12285128;28;20017;-39
2021/11/24 06:08:29;;;;;;;76.47;23.98;;;5.60;99.90;;;;;;12278449;28;20063;-40
2021/11/24 06:14:31;;;;;;;62.72;22.48;;;5.60;99.90;;;;;;12268127;28;20117;-38
2021/11/24 06:20:33;;;;;;;68.35;24.23;;;5.60;99.90;;;;;;12272927;28;20083;-40
2021/11/24 06:26:37;;;;;;;69.95;23.80;;;5.50;99.90;;;;;;12278434;28;20062;-38
2021/11/24 06:32:42;;;;;;;73.82;24.27;;;5.60;99.90;;;;;;12278473;28;20058;-38
2021/11/24 06:38:54;;;;;;;78.75;24.90;;;5.50;99.90;;;;;;12281098;28;20054;-39
2021/11/24 06:45:16;;;;;;;67.65;23.85;;;5.50;99.90;;;;;;12279684;28;20072;-40
2021/11/24 06:51:32;;;;;;;70.13;23.58;;;5.50;99.90;;;;;;12271659;28;20111;-39
2021/11/24 06:57:51;;;;;;;66.43;23.48;;;5.50;99.90;;;;;;12280527;28;20091;-39
2021/11/24 07:04:09;;;;;;;67.50;23.20;;;5.50;99.90;;;;;;12268486;28;20051;-38
2021/11/24 07:10:32;;;;;;;58.95;23.77;;;5.50;99.90;;;;;;12275276;28;20047;-38
2021/11/24 07:17:02;;;;;;;63.80;22.23;;;5.50;99.90;;;;;;12276611;28;20051;-39
2021/11/24 07:23:16;;;;;;;63.75;23.65;;;5.50;99.90;;;;;;12263541;28;20058;-40
2021/11/24 07:29:28;;;;;;;82.70;24.88;;;5.50;99.90;;;;;;12275093;28;20492;-39
2021/11/24 07:35:40;;;;;;;68.07;24.13;;;5.50;99.90;;;;;;12273133;28;20052;-39
2021/11/24 07:41:55;;;;;;;58.50;22.30;;;5.50;99.90;;;;;;12282807;28;20182;-39
2021/11/24 07:48:08;;;;;;;64.13;23.88;;;5.60;99.90;;;;;;12279311;28;20047;-40
2021/11/24 07:54:16;;;;;;;56.03;23.08;;;5.60;99.90;;;;;;12274362;28;20138;-40
2021/11/24 08:00:29;;;;;;;57.65;21.98;;;5.60;99.90;;;;;;12272126;28;20043;-40
2021/11/24 08:06:51;;;;;;;59.60;22.02;;;5.60;99.90;;;;;;12279653;28;20109;-38
2021/11/24 08:13:04;;;;;;;54.75;21.80;;;5.70;99.90;;;;;;12279933;28;20047;-39
2021/11/24 08:19:20;;;;;;;51.38;20.58;;;5.70;99.90;;;;;;12281204;28;20055;-39
2021/11/24 08:25:37;;;;;;;51.03;20.73;;;5.70;99.90;;;;;;12291179;28;20058;-39
2021/11/24 08:31:57;;;;;;;43.55;19.88;;;5.70;99.90;;;;;;12289379;28;20051;-39
2021/11/24 08:38:19;;;;;;;46.00;20.37;;;5.80;99.90;;;;;;12293239;28;20086;-39
2021/11/24 08:44:41;;;;;;;50.90;20.70;;;5.80;99.90;;;;;;12276759;28;20059;-38
2021/11/24 08:50:58;;;;;;;46.83;19.77;;;5.90;99.90;;;;;;12282659;28;20464;-40
2021/11/24 08:57:19;;;;;;;46.00;19.98;;;5.90;99.90;;;;;;12286594;28;20113;-39
2021/11/24 09:03:40;;;;;;;39.47;18.65;;;6.00;99.90;;;;;;12285518;28;20063;-39
2021/11/24 09:10:02;;;;;;;38.05;17.85;;;6.10;99.90;;;;;;12280807;28;20059;-38
2021/11/24 09:16:19;;;;;;;35.95;17.05;;;6.20;99.90;;;;;;12280939;28;20054;-38
2021/11/24 09:22:35;;;;;;;30.40;15.63;;;6.30;99.90;;;;;;12281108;28;20047;-39
2021/11/24 09:28:50;;;;;;;29.15;14.25;;;6.30;99.90;;;;;;12278817;28;20063;-38
2021/11/24 09:35:08;;;;;;;28.55;14.48;;;6.50;99.90;;;;;;12285876;28;20059;-39
2021/11/24 09:41:29;;;;;;;27.85;14.02;;;6.80;99.90;;;;;;12279103;28;20607;-39
2021/11/24 09:47:57;;;;;;;25.58;13.10;;;6.90;99.90;;;;;;12278442;28;20174;-38
2021/11/24 09:54:19;;;;;;;28.58;14.65;;;6.80;99.90;;;;;;12280651;28;20117;-39
2021/11/24 10:00:43;;;;;;;29.58;15.48;;;6.70;99.90;;;;;;12271510;28;20055;-39
2021/11/24 10:07:03;;;;;;;26.45;14.50;;;6.70;99.90;;;;;;12274398;28;20079;-40
2021/11/24 10:13:26;;;;;;;24.38;13.75;;;6.80;99.90;;;;;;12279309;28;20134;-39
2021/11/24 10:20:08;;;;;;;27.67;14.30;;;6.90;99.90;;;;;;12275258;28;20047;-38
2021/11/24 10:26:36;;;;;;;27.70;15.35;;;6.90;99.90;;;;;;12276005;28;20059;-39
2021/11/24 10:33:20;;;;;;;25.77;14.02;;;7.00;99.90;;;;;;12274604;28;20412;-39
2021/11/24 10:39:33;;;;;;;26.27;15.25;;;7.00;99.90;;;;;;12290484;28;20044;-39
2021/11/24 10:45:58;;;;;;;26.23;14.65;;;6.80;99.90;;;;;;12272511;28;20043;-39
2021/11/24 10:52:38;;;;;;;25.10;13.95;;;6.90;99.90;;;;;;12267255;28;20043;-39
2021/11/24 10:58:43;;;;;;;;;;;6.90;99.90;;;;;;12284446;28;20419;-39
2021/11/24 11:05:06;;;;;;;22.23;12.73;;;6.80;99.90;;;;;;12271736;28;20568;-40
2021/11/24 11:11:38;;;;;;;31.00;13.93;;;7.00;99.90;;;;;;12267191;28;20051;-39
2021/11/24 11:18:25;;;;;;;26.42;13.98;;;6.80;99.90;;;;;;12282491;28;20059;-40
2021/11/24 11:24:49;;;;;;;22.13;12.68;;;6.80;99.90;;;;;;12270777;28;20048;-38
2021/11/24 11:31:16;;;;;;;24.08;12.10;;;6.80;99.90;;;;;;12271810;28;20051;-38
2021/11/24 11:37:35;;;;;;;19.88;10.75;;;6.80;99.90;;;;;;12271017;28;20070;-39
2021/11/24 11:43:51;;;;;;;20.17;11.80;;;6.90;99.90;;;;;;12268627;28;20048;-39
2021/11/24 11:50:51;;;;;;;20.35;11.80;;;6.80;99.90;;;;;;12281462;28;20043;-40
2021/11/24 11:57:25;;;;;;;20.27;11.75;;;6.80;99.90;;;;;;12285185;28;20066;-39
2021/11/24 12:04:20;;;;;;;21.80;12.27;;;6.80;99.90;;;;;;12290981;28;20064;-40
2021/11/24 12:11:04;;;;;;;21.67;11.63;;;6.70;99.90;;;;;;12280315;28;20195;-38
2021/11/24 12:17:36;;;;;;;21.95;12.85;;;6.70;99.90;;;;;;12285006;28;20060;-40
2021/11/24 12:24:12;;;;;;;20.05;11.05;;;6.80;99.90;;;;;;12265565;28;20087;-39
2021/11/24 12:30:54;;;;;;;19.70;10.85;;;6.80;99.90;;;;;;12281266;28;20086;-38
2021/11/24 12:37:25;;;;;;;16.58;9.55;;;6.70;99.90;;;;;;12282233;28;20103;-40
2021/11/24 12:43:40;;;;;;;14.02;8.60;;;6.70;99.90;;;;;;12259791;28;20056;-39
2021/11/24 12:49:47;;;;;;;17.42;7.75;;;6.70;99.90;;;;;;12279824;28;20055;-40
2021/11/24 12:56:17;;;;;;;11.68;6.97;;;6.80;99.90;;;;;;12276199;28;20051;-38
2021/11/24 13:02:36;;;;;;;9.93;5.03;;;6.80;99.90;;;;;;12277146;28;20063;-40
2021/11/24 13:09:01;;;;;;;6.97;3.30;;;6.80;99.90;;;;;;12272136;28;20543;-38
2021/11/24 13:15:34;;;;;;;5.13;2.75;;;6.80;99.90;;;;;;12273483;28;20404;-39
2021/11/24 13:21:57;;;;;;;5.25;2.88;;;6.80;99.90;;;;;;12270606;28;20051;-40
2021/11/24 13:28:24;;;;;;;6.25;2.70;;;6.90;99.90;;;;;;12283792;28;20054;-38
2021/11/24 13:34:54;;;;;;;6.50;3.08;;;6.90;99.90;;;;;;12259455;28;20047;-39
2021/11/24 13:41:32;;;;;;;6.88;3.25;;;6.80;99.90;;;;;;12285782;28;20048;-38
2021/11/24 13:47:51;;;;;;;4.57;2.85;;;6.70;99.90;;;;;;12281801;28;20056;-38
2021/11/24 13:54:15;;;;;;;4.75;2.95;;;6.60;99.90;;;;;;12269422;28;20271;-39
2021/11/24 14:00:30;;;;;;;4.70;2.75;;;6.80;99.90;;;;;;12281348;28;20058;-39
2021/11/24 14:06:53;;;;;;;5.65;2.40;;;6.80;99.90;;;;;;12284074;28;20055;-39
2021/11/24 14:13:18;;;;;;;2.85;1.55;;;6.60;99.90;;;;;;12280635;28;20062;-39
2021/11/24 14:19:41;;;;;;;5.20;2.50;;;6.60;99.90;;;;;;12285926;28;20101;-38
2021/11/24 14:26:01;;;;;;;4.30;2.20;;;6.60;99.90;;;;;;12270939;28;20054;-40
2021/11/24 14:32:10;;;;;;;4.18;2.38;;;6.60;99.90;;;;;;12272205;28;20435;-38
2021/11/24 14:38:30;;;;;;;6.53;2.97;;;6.50;99.90;;;;;;12268382;28;20051;-39
2021/11/24 14:44:57;;;;;;;8.10;2.10;;;6.50;99.90;;;;;;12251700;28;20046;-39
2021/11/24 14:51:20;;;;;;;6.95;1.75;;;6.30;99.90;;;;;;12290292;28;20048;-38
2021/11/24 14:57:40;;;;;;;8.75;3.67;;;6.40;99.90;;;;;;12266839;28;20082;-39
2021/11/24 15:03:59;;;;;;;4.78;2.40;;;6.30;99.90;;;;;;12276007;28;20552;-39
2021/11/24 15:10:27;;;;;;;4.40;2.30;;;6.20;99.90;;;;;;12259571;28;20141;-39
2021/11/24 15:17:11;;;;;;;6.63;2.92;;;6.20;99.90;;;;;;12278901;28;20086;-38
2021/11/24 15:23:33;;;;;;;8.63;4.13;;;6.10;99.90;;;;;;12270414;28;20048;-38
2021/11/24 15:29:47;;;;;;;7.85;4.28;;;6.00;99.90;;;;;;12272150;28;20056;-39
2021/11/24 15:36:11;;;;;;;6.85;4.05;;;6.00;99.90;;;;;;12244194;28;20055;-39
2021/11/24 15:42:31;;;;;;;7.47;3.72;;;6.00;99.90;;;;;;12279491;28;20094;-38
2021/11/24 15:48:49;;;;;;;5.63;3.45;;;6.00;99.90;;;;;;12272775;28;20496;-39
2021/11/24 15:55:06;;;;;;;7.35;3.95;;;6.00;99.90;;;;;;12259255;28;20197;-38
2021/11/24 16:01:19;;;;;;;6.55;3.10;;;6.00;99.90;;;;;;12263747;28;20059;-38
2021/11/24 16:07:27;;;;;;;5.65;3.00;;;6.10;99.90;;;;;;12250063;28;20051;-37
2021/11/24 16:13:29;;;;;;;10.65;5.13;;;6.20;99.90;;;;;;12219975;29;20048;-38
2021/11/24 16:19:43;;;;;;;6.88;3.83;;;5.90;99.90;;;;;;12224188;29;20083;-38
2021/11/24 16:25:50;;;;;;;7.03;4.05;;;6.10;99.90;;;;;;12212607;29;20044;-38
2021/11/24 16:31:55;;;;;;;6.53;3.70;;;5.80;99.90;;;;;;12225708;29;20056;-40
2021/11/24 16:37:59;;;;;;;5.35;3.45;;;5.80;99.90;;;;;;12218815;29;20149;-39
2021/11/24 16:44:02;;;;;;;7.65;3.72;;;5.80;99.90;;;;;;12224571;29;20243;-38
2021/11/24 16:50:06;;;;;;;6.22;3.42;;;5.80;99.90;;;;;;12224641;29;20150;-38
2021/11/24 16:56:09;;;;;;;6.97;3.80;;;5.60;99.90;;;;;;12208005;29;20055;-39
2021/11/24 17:02:11;;;;;;;7.50;4.40;;;5.70;99.90;;;;;;12212653;29;20142;-40
2021/11/24 17:08:14;;;;;;;7.40;4.80;;;5.80;99.90;;;;;;12262095;28;20055;-40
2021/11/24 17:14:17;;;;;;;8.27;4.60;;;5.80;99.90;;;;;;12273772;28;20416;-39
2021/11/24 17:20:24;;;;;;;8.48;4.18;;;5.70;99.90;;;;;;12276956;28;20051;-38
2021/11/24 17:26:29;;;;;;;8.27;4.13;;;5.60;99.90;;;;;;12273921;28;20784;-38
2021/11/24 17:32:33;;;;;;;9.57;4.63;;;5.60;99.90;;;;;;12262430;28;20056;-38
2021/11/24 17:38:36;;;;;;;10.07;4.60;;;5.60;99.90;;;;;;12272872;28;20178;-39
2021/11/24 17:44:38;;;;;;;11.95;5.20;;;5.60;99.90;;;;;;12273156;28;20047;-39
2021/11/24 17:50:42;;;;;;;11.82;6.35;;;5.50;99.90;;;;;;12272457;28;20130;-38
2021/11/24 17:56:44;;;;;;;13.70;7.60;;;5.60;99.90;;;;;;12265933;28;20097;-39
2021/11/24 18:02:46;;;;;;;16.58;7.65;;;5.70;99.90;;;;;;12278777;28;20059;-39
2021/11/24 18:08:49;;;;;;;14.75;7.35;;;5.70;99.90;;;;;;12265299;28;20516;-39
2021/11/24 18:14:53;;;;;;;14.27;7.43;;;5.70;99.90;;;;;;12250450;28;20073;-39
2021/11/24 18:20:55;;;;;;;14.45;7.50;;;5.70;99.90;;;;;;12264726;28;20456;-38
2021/11/24 18:26:57;;;;;;;16.33;7.88;;;5.60;99.90;;;;;;12269526;28;20113;-39
2021/11/24 18:33:01;;;;;;;15.50;6.88;;;5.70;99.90;;;;;;12270849;28;20500;-39
2021/11/24 18:39:05;;;;;;;14.68;6.97;;;5.60;99.90;;;;;;12264842;28;20380;-37
2021/11/24 18:45:11;;;;;;;11.90;6.47;;;5.70;99.90;;;;;;12253110;28;20502;-38
2021/11/24 18:51:14;;;;;;;15.27;6.93;;;5.70;99.90;;;;;;12267842;28;20047;-38
2021/11/24 18:57:19;;;;;;;11.52;6.32;;;5.60;99.90;;;;;;12259051;28;20145;-38
2021/11/24 19:03:22;;;;;;;12.02;6.20;;;5.50;99.90;;;;;;12255725;28;20397;-38
2021/11/24 19:09:25;;;;;;;10.88;6.18;;;5.60;99.90;;;;;;12267399;28;20059;-38
2021/11/24 19:15:27;;;;;;;12.20;6.10;;;5.70;99.90;;;;;;12265903;28;20140;-39
2021/11/24 19:21:29;;;;;;;11.23;6.70;;;5.70;99.90;;;;;;12257112;28;20464;-39
2021/11/24 19:27:31;;;;;;;10.80;5.93;;;5.60;99.90;;;;;;12261840;28;20503;-38
2021/11/24 19:33:33;;;;;;;12.48;6.18;;;5.50;99.90;;;;;;12263163;28;20051;-39
2021/11/24 19:39:38;;;;;;;9.65;6.20;;;5.60;99.90;;;;;;12261123;28;20137;-39
2021/11/24 19:45:40;;;;;;;12.15;5.85;;;5.60;99.90;;;;;;12240900;28;20095;-39
2021/11/24 19:51:42;;;;;;;10.73;6.10;;;5.40;99.90;;;;;;12254801;28;20415;-39
2021/11/24 19:57:44;;;;;;;10.70;6.97;;;5.40;99.90;;;;;;12265052;28;20142;-38
2021/11/24 20:03:47;;;;;;;11.07;5.90;;;5.40;99.90;;;;;;12257343;28;20052;-38
2021/11/24 20:09:49;;;;;;;8.90;5.63;;;5.40;99.90;;;;;;12259196;28;20056;-38
2021/11/24 20:15:51;;;;;;;8.02;5.40;;;5.40;99.90;;;;;;12268552;28;20047;-38
2021/11/24 20:21:55;;;;;;;10.82;5.70;;;5.40;99.90;;;;;;12272476;28;20526;-39
2021/11/24 20:28:04;;;;;;;10.15;5.93;;;5.50;99.90;;;;;;12262644;28;20087;-38
2021/11/24 20:34:07;;;;;;;8.13;4.75;;;5.50;99.90;;;;;;12269976;28;20054;-38
2021/11/24 20:40:09;;;;;;;7.43;4.50;;;5.40;99.90;;;;;;12259633;28;20562;-38
2021/11/24 20:46:12;;;;;;;7.75;4.65;;;5.40;99.90;;;;;;12268612;28;20044;-39
2021/11/24 20:52:14;;;;;;;8.07;5.38;;;5.40;99.90;;;;;;12253983;28;21206;-37
2021/11/24 20:58:16;;;;;;;7.63;5.25;;;5.40;99.90;;;;;;12273433;28;20063;-39
2021/11/24 21:04:20;;;;;;;7.60;4.38;;;5.30;99.90;;;;;;12258574;28;20137;-39
2021/11/24 21:10:23;;;;;;;7.15;4.38;;;5.30;99.90;;;;;;12268995;28;20060;-39
2021/11/24 21:16:24;;;;;;;7.95;4.68;;;5.30;99.90;;;;;;12270679;28;20495;-39
2021/11/24 21:22:27;;;;;;;7.55;4.85;;;5.60;99.90;;;;;;12258657;28;20043;-38
2021/11/24 21:28:31;;;;;;;12.35;5.45;;;5.40;99.90;;;;;;12261023;28;20052;-39
2021/11/24 21:34:33;;;;;;;8.43;4.82;;;5.30;99.90;;;;;;12272011;28;20059;-38
2021/11/24 21:40:35;;;;;;;10.57;5.60;;;5.20;99.90;;;;;;12265907;28;20047;-38
2021/11/24 21:46:37;;;;;;;8.27;5.25;;;5.10;99.90;;;;;;12257340;28;20079;-40
2021/11/24 21:52:40;;;;;;;8.93;5.45;;;5.10;99.90;;;;;;12267201;28;20058;-38
2021/11/24 21:58:42;;;;;;;11.80;5.95;;;5.10;99.90;;;;;;12251267;28;20530;-38
2021/11/24 22:04:44;;;;;;;9.23;5.60;;;5.10;99.90;;;;;;12249302;28;20420;-38
2021/11/24 22:17:08;;;;;;;8.23;5.47;;;5.20;99.90;;;;;;12269789;28;20075;-39
2021/11/24 22:23:10;;;;;;;8.95;5.40;;;5.20;99.90;;;;;;12265952;28;20047;-39
2021/11/24 22:29:12;;;;;;;8.73;5.60;;;5.20;99.90;;;;;;12248682;28;20097;-39
2021/11/24 22:35:15;;;;;;;10.18;6.05;;;5.20;99.90;;;;;;12253808;28;20612;-38
2021/11/24 22:41:18;;;;;;;11.63;5.50;;;5.00;99.90;;;;;;12253436;28;20083;-38
2021/11/24 22:47:20;;;;;;;9.27;5.70;;;5.00;99.90;;;;;;12252002;28;20052;-38
2021/11/24 22:53:23;;;;;;;11.07;6.30;;;4.90;99.90;;;;;;12265475;28;20044;-38
2021/11/24 22:59:25;;;;;;;10.45;6.75;;;4.90;99.90;;;;;;12262354;28;20058;-38
2021/11/24 23:05:28;;;;;;;11.93;7.50;;;4.90;99.90;;;;;;12260912;28;20114;-40
2021/11/24 23:11:30;;;;;;;13.70;7.63;;;4.90;99.90;;;;;;12267738;28;20955;-37
2021/11/24 23:17:32;;;;;;;12.02;6.93;;;4.90;99.90;;;;;;12251409;28;20400;-38
2021/11/24 23:23:35;;;;;;;11.90;6.50;;;4.90;99.90;;;;;;12269341;28;20063;-38
2021/11/24 23:29:37;;;;;;;10.15;7.32;;;4.90;99.90;;;;;;12263533;28;20062;-38
2021/11/24 23:35:40;;;;;;;10.95;5.90;;;5.00;99.90;;;;;;12248708;28;20504;-39
2021/11/24 23:41:43;;;;;;;11.30;6.05;;;5.00;99.90;;;;;;12262113;28;20088;-39
2021/11/24 23:47:45;;;;;;;11.00;6.20;;;5.00;99.90;;;;;;12249728;28;20054;-39
2021/11/24 23:53:46;;;;;;;8.82;6.25;;;5.00;99.90;;;;;;12272841;28;20048;-39
2021/11/24 23:59:49;;;;;;;10.45;6.47;;;5.00;99.90;;;;;;12267734;28;20055;-39
